City Of Vicksburg — WDC2660 — position and weather

sailwx.info

Track history (hours):
 
Tides and Currents Weather Stations Pressure Air Temp Water Temp Dewpoint Dewpoint Depression Visibility Wind Speed Wind Dir Waves Ship Positions

City Of Vicksburg

Owner: Kirby Inland Marine LP, Houston, TX. More information available from US FCC via Universal Licensing System and Coast Guard Vessel Documentation Center.

Last reported at 2015-Jan-30 08:03 UTC. Time now 2015-Mar-03 07:26 UTC.
Position N 29°55' W 090°06'.
Warning: this ship's position is 31 days out of date.

Length 320 m.

Type: Towing. MMSI: 366996120.

Date/timePositionNaut miles runAvg speedWind from/ knotsBaromVisibWave heightAir tempDewpointWater temp
2015-Jan-30 08:03N 29°55' W 090°06'19 6.4
2015-Jan-30 05:06N 29°60' W 090°26'2 2.9
2015-Jan-30 04:30N 29°59' W 090°25'8 6.4
2015-Jan-30 03:17N 29°58' W 090°16'11 5.9
2015-Jan-30 01:29N 29°56' W 090°03'4 0.1
2015-Jan-28 17:33N 29°56' W 089°59'8 7.7
2015-Jan-28 16:30N 29°55' W 090°08'16 5.1
2015-Jan-28 13:18N 29°60' W 090°26'18 5.7
2015-Jan-28 10:12N 29°55' W 090°06'1 0.0
2015-Jan-26 22:32N 29°55' W 090°06'  
Track history (hours):
 
Tides and Currents Weather Stations Pressure Air Temp Water Temp Dewpoint Dewpoint Depression Visibility Wind Speed Wind Dir Waves Ship Positions

City Of Vicksburg

Owner: Kirby Inland Marine LP, Houston, TX. More information available from US FCC via Universal Licensing System and Coast Guard Vessel Documentation Center.

Last reported at 2015-Jan-30 08:03 UTC. Time now 2015-Mar-03 07:26 UTC.
Position N 29°55' W 090°06'.
Warning: this ship's position is 31 days out of date.

Length 320 m.

Type: Towing. MMSI: 366996120.

Date/timePositionNaut miles runAvg speedWind from/ knotsBaromVisibWave heightAir tempDewpointWater temp
2015-Jan-30 08:03N 29°55' W 090°06'19 6.4
2015-Jan-30 05:06N 29°60' W 090°26'2 2.9
2015-Jan-30 04:30N 29°59' W 090°25'8 6.4
2015-Jan-30 03:17N 29°58' W 090°16'11 5.9
2015-Jan-30 01:29N 29°56' W 090°03'4 0.1
2015-Jan-28 17:33N 29°56' W 089°59'8 7.7
2015-Jan-28 16:30N 29°55' W 090°08'16 5.1
2015-Jan-28 13:18N 29°60' W 090°26'18 5.7
2015-Jan-28 10:12N 29°55' W 090°06'1 0.0
2015-Jan-26 22:32N 29°55' W 090°06'  

Dump ship's entire track history